46°F Temp
43°F Dewpoint
87% Humidity
Temperature
3 MPH
5 KM/H
3 KTS
240°
West South
West

Wind Speed
Clear
Conditions
Pressure 1016.92 (hPa) - 30.03 (in)
Visibility 10.0 (mi) - 16.1 (km)

Current Conditions
KSJC
Location 9(mi)
Metar :KSJC 201053Z AUTO 24003KT 10SM CLR 08/06 A3003 RMK AO2 SLP169 T00780056 $
Mon 20th January 02:53 am

Airport
  Metar Aviation API Data Provided by https://www.checkwx.com/ PHP scripts by weather34.com ©2020